LIPY/AOI METAR and TAF weather

Enter ICAO airport designator
Station Type Date Time Source
LIPY METAR 2022/06/28 23:50 UTC NOAA

LIPY 282350Z AUTO 23003KT 190V280 9999 NCD 21/20 Q1010


Station Type Date Time Source
LIPY Decoded METAR 2022/06/28 23:50 UTC NOAA

Falconara, Italy (LIPY) 43-37N 013-22E 10M
Jun 28, 2022 - 07:50 PM EDT / 2022.06.28 2350 UTC
Wind: from the SW (230 degrees) at 3 MPH (3 KT) (direction variable):0
Visibility: greater than 7 mile(s):0
Temperature: 69 F (21 C)
Dew Point: 68 F (20 C)
Relative Humidity: 94%
Pressure (altimeter): 29.83 in. Hg (1010 hPa)
ob: LIPY 282350Z AUTO 23003KT 190V280 9999 NCD 21/20 Q1010
cycle: 0

Station Type Date Time Source
LIPY TAF 2022/06/28 18:24 UTC NOAA

TAF LIPY 281700Z 2818/2918 07010KT 9999 FEW050
BECMG 2818/2820 VRB05KT
BECMG 2823/2901 35012KT
BECMG 2911/2913 05010KT

Example: see airport list